Corvallis, OR

5:57 PM PST en Febrero 27, 2015 (GMT -0800)
Cascade View Estates | Change Station
CLOSE
Current Station
Estación meteorológica personal
Location: Corvallis, OR
Altura: 666 ft
Estaciones meteorológicas cercanas

Alt 666 ft 44.64 °N, 123.26 °W | Updated 2 minutes ago

Lluvia
Lluvia
46.8 ° F
Sensación térmica 47 ° F
N
0.0
Viento Variable Viento desde Sur
Gusts 0.0 mph

Hoy
Alta -- | Baja -- ° F
--% Posibilidad de precipitaciones
Ayer
Alta -- | Baja -- ° F
Precip. -- pul
6:54 AM 5:58 PM
Gibosa creciente, 73% visible
Presión 29.71 pul
Visibilidad 10.0 Millas
Nubes Nubes dispersas 1500 ft
Muy nublado 4600 ft
Nublado 5000 ft
Vientos helados 47 ° F
Punto de rocío 46 ° F
Humedad 99%
Precipitaciones 0.18 pul
Espesor de la nieve No disponible.
UV 0 de una escala de 12
Polen .60 de una escala de 12
Calidad del aire No disponible.
Flu Activity No disponible.
METAR KCVO 280135Z AUTO 14006KT 10SM SCT015 BKN046 OVC050 10/08 A2971 RMK AO1 P0001

More Conditions Fewer Conditions

Presión 29.71 pul
Visibilidad 10.0 Millas
Nubes Nubes dispersas 1500 ft
Muy nublado 4600 ft
Nublado 5000 ft
Vientos helados 47 ° F
Punto de rocío 46 ° F
Humedad 99%
Precipitaciones 0.18 pul
Espesor de la nieve No disponible.
UV 0 de una escala de 12
Polen .60 de una escala de 12
Calidad del aire No disponible.
Flu Activity No disponible.
METAR KCVO 280135Z AUTO 14006KT 10SM SCT015 BKN046 OVC050 10/08 A2971 RMK AO1 P0001

More Conditions Fewer Conditions

10-Day Weather Forecast

Almanac

Astronomía

Feb. 27, 2015 Salida Puesta
Hora real
Crepúsculo civil
Crepúsculo náutico
Crepúsculo astronómico
Luna
Horas de luz
Horas de luz
Tomorrow will be .
, % of the Moon is Illuminated

Extremos de hoy

Máximos del estado Bajos del estado

Community

WunderPhotos

Upload Photos

1,800,924 ¡fotos cargadas!

WunderBlogs® & News

Nearby

Calidad del aire

  Calidad del aire Índice AQ Contaminante
Not available.

Grosos de nieve

Estación Profundido Altura

Actividad de terremotos

Ciudad Distance Mag. Tiempo y dato
Magnitud mínima muestra es 2,5.

Temperaturas de aguas costeras

Lugar Temperatura

Estaciones meteorológicas cercanas